createdAt,value
2023-03-22T00:00:26.615Z,123.80
2023-03-22T00:56:26.154Z,25.00
2023-03-22T01:00:27.233Z,25.00
2023-03-22T01:04:27.424Z,0.00
2023-03-22T01:08:27.610Z,0.00
2023-03-22T01:12:27.800Z,28.14
2023-03-22T01:16:27.961Z,32.85
2023-03-22T01:20:27.907Z,28.61
2023-03-22T01:24:27.967Z,32.48
2023-03-22T01:28:28.022Z,27.89
2023-03-22T01:32:27.977Z,32.55
2023-03-22T01:36:28.019Z,25.00
2023-03-22T01:40:28.068Z,28.89
2023-03-22T01:44:28.119Z,30.49
2023-03-22T01:48:28.093Z,24.41
2023-03-22T01:52:28.101Z,31.71
2023-03-22T01:56:28.104Z,36.81
2023-03-22T02:00:28.106Z,34.16
2023-03-22T02:04:28.144Z,34.22
2023-03-22T02:08:28.525Z,36.53
2023-03-22T02:12:28.721Z,29.94
2023-03-22T02:16:28.131Z,34.30
2023-03-22T02:20:28.107Z,40.14
2023-03-22T02:24:28.111Z,33.96
2023-03-22T02:28:28.111Z,37.76
2023-03-22T02:32:28.093Z,33.93
2023-03-22T02:36:28.055Z,31.86
2023-03-22T02:40:28.045Z,36.48
2023-03-22T02:44:28.035Z,32.94
2023-03-22T02:48:28.064Z,31.12
2023-03-22T02:52:28.054Z,31.69
2023-03-22T02:56:28.044Z,31.03
2023-03-22T03:00:28.043Z,36.32
2023-03-22T03:04:28.052Z,33.03
2023-03-22T03:08:28.017Z,27.52
2023-03-22T03:12:28.011Z,32.65
2023-03-22T03:16:28.029Z,30.73
2023-03-22T03:20:28.269Z,37.44
2023-03-22T03:24:27.966Z,35.83
2023-03-22T03:28:27.961Z,35.69
2023-03-22T03:32:27.996Z,32.86
2023-03-22T03:36:28.013Z,29.39
2023-03-22T03:40:27.995Z,36.32
2023-03-22T03:44:28.022Z,29.55
2023-03-22T03:48:28.070Z,28.07
2023-03-22T03:52:28.057Z,34.72
2023-03-22T03:56:28.082Z,37.42
2023-03-22T04:00:28.049Z,31.61
2023-03-22T04:04:28.183Z,38.41
2023-03-22T04:08:28.147Z,30.43
2023-03-22T04:12:28.070Z,34.10
2023-03-22T04:16:28.139Z,33.56
2023-03-22T04:20:28.104Z,32.14
2023-03-22T04:24:28.136Z,33.59
2023-03-22T04:28:28.079Z,35.62
2023-03-22T04:32:28.115Z,36.03
2023-03-22T04:36:28.131Z,35.21
2023-03-22T04:40:28.142Z,37.18
2023-03-22T04:44:28.126Z,31.62
2023-03-22T04:48:28.208Z,36.88
2023-03-22T04:56:46.112Z,25.00
2023-03-22T05:00:46.662Z,33.80
2023-03-22T05:04:46.629Z,32.67
2023-03-22T05:08:46.585Z,28.16
2023-03-22T05:12:46.578Z,35.69
2023-03-22T05:16:46.513Z,32.26
2023-03-22T05:20:46.470Z,32.02
2023-03-22T05:24:46.440Z,32.49
2023-03-22T05:28:46.417Z,32.11
2023-03-22T07:24:57.023Z,162.25
2023-03-22T07:28:48.012Z,155.72
2023-03-22T07:32:47.484Z,156.88
2023-03-22T07:36:47.496Z,151.79
2023-03-22T07:40:47.976Z,150.64
2023-03-22T07:44:48.166Z,150.71
2023-03-22T07:48:47.998Z,144.43
2023-03-22T07:52:48.011Z,142.17
2023-03-22T07:56:48.477Z,137.84
2023-03-22T08:00:48.484Z,137.27
2023-03-22T08:04:51.131Z,135.10
2023-03-22T08:12:48.156Z,134.32
2023-03-22T08:16:48.525Z,125.79
2023-03-22T08:20:48.493Z,126.15
2023-03-22T08:24:48.705Z,124.46
2023-03-22T08:40:49.535Z,144.95
2023-03-22T08:44:49.541Z,153.87
2023-03-22T08:48:50.020Z,163.97
2023-03-22T08:52:50.033Z,176.57
2023-03-22T08:56:50.048Z,193.66
2023-03-22T09:00:50.628Z,204.61
2023-03-22T09:04:51.555Z,168.29
2023-03-22T09:08:50.508Z,89.65
2023-03-22T09:12:50.536Z,65.60
2023-03-22T09:16:50.009Z,31.48
2023-03-22T09:20:50.515Z,21.84
2023-03-22T09:24:49.795Z,28.23
2023-03-22T09:28:50.091Z,58.82
2023-03-22T11:16:51.143Z,28.47
2023-03-22T11:20:51.151Z,97.24
2023-03-22T11:24:51.575Z,95.42
2023-03-22T11:28:51.562Z,62.05
2023-03-22T11:32:51.606Z,0.00
2023-03-22T11:40:52.056Z,37.74
2023-03-22T11:48:52.319Z,35.66
2023-03-22T11:52:52.086Z,65.08
2023-03-22T11:56:52.660Z,62.24
2023-03-22T12:00:52.598Z,32.81
2023-03-22T12:04:52.623Z,92.69
2023-03-22T12:08:52.623Z,77.60
2023-03-22T12:12:52.600Z,75.03
2023-03-22T12:16:52.489Z,75.98
2023-03-22T12:20:52.587Z,49.87
2023-03-22T12:24:52.708Z,93.50
2023-03-22T12:28:52.346Z,72.76
2023-03-22T12:32:52.688Z,101.42
2023-03-22T12:36:53.079Z,117.74
2023-03-22T12:40:52.604Z,116.47
2023-03-22T12:45:02.649Z,119.36
2023-03-22T12:48:52.210Z,108.98
2023-03-22T12:52:53.534Z,106.25
2023-03-22T12:56:52.128Z,116.96
2023-03-22T13:00:52.152Z,125.46
2023-03-22T13:04:52.118Z,106.05
2023-03-22T13:08:51.970Z,141.02
2023-03-22T13:12:52.387Z,124.17
2023-03-22T13:16:52.401Z,146.26
2023-03-22T13:20:52.371Z,150.03
2023-03-22T13:24:52.113Z,147.36
2023-03-22T13:28:52.629Z,130.76
2023-03-22T13:36:52.598Z,151.23
2023-03-22T13:40:53.386Z,160.75
2023-03-22T13:44:52.426Z,146.67
2023-03-22T13:48:52.888Z,152.17
2023-03-22T13:52:52.614Z,164.94
2023-03-22T13:56:52.965Z,248.54
2023-03-22T14:00:54.154Z,248.60
2023-03-22T14:04:52.662Z,249.51
2023-03-22T14:08:54.111Z,249.36
2023-03-22T14:12:52.659Z,249.13
2023-03-22T14:16:52.642Z,249.59
2023-03-22T14:20:52.304Z,249.73
2023-03-22T14:49:10.668Z,28.21
2023-03-22T14:53:11.515Z,27.10
2023-03-22T14:57:11.512Z,27.92
2023-03-22T15:01:10.521Z,33.50
2023-03-22T15:05:11.050Z,53.10
2023-03-22T15:09:10.644Z,55.57
2023-03-22T15:13:11.024Z,169.87
2023-03-22T15:21:10.549Z,151.24
2023-03-22T15:25:11.338Z,172.33
2023-03-22T15:29:11.524Z,146.45
2023-03-22T15:33:12.529Z,137.30
2023-03-22T15:37:12.055Z,124.82
2023-03-22T15:41:12.530Z,125.82
2023-03-22T15:45:12.529Z,115.91
2023-03-22T15:49:12.580Z,114.80
2023-03-22T15:53:12.544Z,107.62
2023-03-22T15:57:18.037Z,105.49
2023-03-22T16:01:12.646Z,101.67
2023-03-22T16:05:12.543Z,99.53
2023-03-22T16:09:13.423Z,93.46
2023-03-22T16:13:12.556Z,90.61
2023-03-22T16:17:12.545Z,84.45
2023-03-22T16:25:12.073Z,74.53
2023-03-22T16:29:13.053Z,72.93
2023-03-22T16:33:13.064Z,71.66
2023-03-22T16:37:13.050Z,70.29
2023-03-22T16:41:13.510Z,63.94
2023-03-22T16:45:13.485Z,64.16
2023-03-22T16:49:13.538Z,62.17
2023-03-22T16:53:14.054Z,59.70
2023-03-22T16:57:13.872Z,60.73
2023-03-22T17:01:14.060Z,54.67
2023-03-22T17:05:14.500Z,55.58
2023-03-22T18:37:14.717Z,29.98
2023-03-22T18:45:15.970Z,33.64
2023-03-22T18:49:25.651Z,25.44
2023-03-22T18:53:22.184Z,32.83
2023-03-22T19:01:14.799Z,32.14
2023-03-22T19:05:16.175Z,36.23
2023-03-22T19:09:15.646Z,32.33
2023-03-22T19:13:15.350Z,32.51
2023-03-22T19:17:15.659Z,28.78
2023-03-22T19:21:26.550Z,33.70
2023-03-22T19:25:18.148Z,34.48
2023-03-22T19:29:15.209Z,25.92
2023-03-22T19:33:31.251Z,32.47
2023-03-22T19:37:15.186Z,33.02
2023-03-22T19:41:46.391Z,27.66
2023-03-22T19:45:15.053Z,27.56
2023-03-22T19:49:15.186Z,25.00
2023-03-22T19:53:44.342Z,30.68
2023-03-22T19:57:18.168Z,30.49
2023-03-22T20:01:15.295Z,26.66
2023-03-22T20:05:18.025Z,28.52
2023-03-22T20:09:15.239Z,30.24
2023-03-22T20:13:15.675Z,29.69
2023-03-22T20:17:20.874Z,33.40
2023-03-22T20:21:14.714Z,31.66
2023-03-22T20:25:14.702Z,27.72
2023-03-22T20:29:14.684Z,32.00
2023-03-22T20:33:14.630Z,27.48
2023-03-22T20:37:14.687Z,29.09
2023-03-22T20:41:14.743Z,28.46
2023-03-22T20:45:14.686Z,30.26
2023-03-22T20:49:15.186Z,32.04
2023-03-22T20:53:14.630Z,27.80
2023-03-22T20:57:14.668Z,33.83
2023-03-22T21:01:14.654Z,30.36
2023-03-22T21:05:14.657Z,29.04
2023-03-22T21:09:14.638Z,28.35
2023-03-22T21:13:14.665Z,29.46
2023-03-22T21:17:14.201Z,30.66
2023-03-22T21:21:14.147Z,31.98
2023-03-22T21:25:14.106Z,31.86
2023-03-22T21:29:14.228Z,31.05
2023-03-22T21:33:14.034Z,26.32
2023-03-22T21:37:13.997Z,30.34
2023-03-22T21:41:13.960Z,30.35
2023-03-22T21:45:14.267Z,29.74
2023-03-22T21:49:14.149Z,31.48
2023-03-22T21:53:14.715Z,34.05
2023-03-22T21:57:15.217Z,31.56
2023-03-22T22:01:14.705Z,31.80
2023-03-22T22:05:14.716Z,29.82
2023-03-22T22:09:15.720Z,27.98
2023-03-22T22:13:15.073Z,29.99
2023-03-22T22:17:15.228Z,33.05
2023-03-22T22:21:16.222Z,26.11
2023-03-22T22:25:15.480Z,26.54
2023-03-22T22:29:15.629Z,32.80
2023-03-22T22:33:15.848Z,27.32
2023-03-22T22:37:16.721Z,27.23
2023-03-22T22:41:16.087Z,30.13
2023-03-22T22:45:16.248Z,32.31
2023-03-22T22:49:16.380Z,32.98
2023-03-22T22:53:16.736Z,31.19
2023-03-22T22:57:16.734Z,25.28
2023-03-22T23:01:16.949Z,30.98
2023-03-22T23:05:17.178Z,25.61
2023-03-22T23:09:17.277Z,31.18
2023-03-22T23:13:17.492Z,34.26
2023-03-22T23:17:17.446Z,31.66
2023-03-22T23:21:17.429Z,32.04
2023-03-22T23:25:17.366Z,35.29
2023-03-22T23:29:17.361Z,34.49
2023-03-22T23:33:17.316Z,28.15
2023-03-22T23:37:17.272Z,30.68
2023-03-22T23:41:17.263Z,29.89
2023-03-22T23:45:17.399Z,33.96
2023-03-22T23:49:17.363Z,30.57
2023-03-22T23:53:17.352Z,26.60
2023-03-22T23:57:17.291Z,31.54
